Time;durP1;ratioP1;P1;durP2;ratioP2;P2;SDS_P1;SDS_P2;PMS_P1;PMS_P2;Temp;Humidity;BMP_temperature;BMP_pressure;BME280_temperature;BME280_humidity;BME280_pressure;Samples;Min_cycle;Max_cycle;Signal;HPM_P1;HPM_P2
2023/05/30 00:00:13;;;;;;;9.60;5.90;;;;;;;26.04;51.15;99242.69;4994473;28;20403;-73
2023/05/30 00:02:43;;;;;;;8.98;6.00;;;;;;;26.04;51.40;99240.00;4993985;28;20038;-73
2023/05/30 00:05:09;;;;;;;9.45;6.47;;;;;;;26.01;51.67;99239.25;4994357;28;20093;-73
2023/05/30 00:07:35;;;;;;;9.07;5.63;;;;;;;26.03;51.17;99236.47;4994123;28;20030;-73
2023/05/30 00:10:00;;;;;;;8.25;6.18;;;;;;;26.01;51.47;99239.25;4993878;28;20027;-74
2023/05/30 00:12:27;;;;;;;9.00;5.40;;;;;;;26.01;51.35;99236.59;4994202;28;20026;-73
2023/05/30 00:14:52;;;;;;;8.57;5.43;;;;;;;26.01;51.63;99236.59;4994020;28;20037;-74
2023/05/30 00:17:20;;;;;;;7.85;5.32;;;;;;;26.00;51.30;99232.22;4994202;28;20387;-74
2023/05/30 00:19:45;;;;;;;7.90;5.10;;;;;;;26.03;51.57;99232.94;4994012;28;20061;-74
2023/05/30 00:22:11;;;;;;;11.73;6.00;;;;;;;26.01;51.47;99233.91;4993557;28;20058;-73
2023/05/30 00:24:36;;;;;;;9.07;5.68;;;;;;;26.02;51.10;99240.13;4993762;28;20031;-74
2023/05/30 00:27:02;;;;;;;9.75;6.07;;;;;;;26.01;51.73;99239.25;4993869;28;20034;-74
2023/05/30 00:29:27;;;;;;;7.95;6.20;;;;;;;26.02;51.24;99234.78;4993892;28;20029;-74
2023/05/30 00:31:52;;;;;;;11.05;5.90;;;;;;;26.01;51.76;99238.44;4993839;28;20479;-73
2023/05/30 00:34:18;;;;;;;7.95;6.03;;;;;;;26.01;51.34;99239.25;4981066;28;20392;-73
2023/05/30 00:36:43;;;;;;;7.50;5.10;;;;;;;25.99;51.48;99227.88;4974065;28;20035;-74
2023/05/30 00:39:09;;;;;;;8.63;5.75;;;;;;;26.00;51.52;99228.69;4974303;28;20035;-74
2023/05/30 00:41:34;;;;;;;9.30;5.88;;;;;;;25.98;51.41;99223.50;4973902;28;20035;-73
2023/05/30 00:43:59;;;;;;;7.78;5.95;;;;;;;25.98;51.39;99223.50;4983910;28;20030;-74
2023/05/30 00:46:29;;;;;;;7.00;5.20;;;;;;;25.98;51.40;99222.66;4993328;28;20033;-74
2023/05/30 00:48:56;;;;;;;7.07;5.65;;;;;;;25.96;51.70;99214.75;4993461;28;20046;-73
2023/05/30 00:51:23;;;;;;;11.20;6.43;;;;;;;25.97;51.65;99224.50;4992831;28;20500;-74
2023/05/30 00:53:48;;;;;;;9.68;5.78;;;;;;;25.97;51.36;99221.81;4993380;28;20101;-73
2023/05/30 00:56:15;;;;;;;8.98;6.28;;;;;;;25.96;51.43;99222.78;4993437;28;20624;-74
2023/05/30 00:58:41;;;;;;;8.32;5.97;;;;;;;25.94;51.69;99223.88;4992871;28;20157;-73
2023/05/30 01:01:07;;;;;;;6.88;5.40;;;;;;;25.93;51.39;99220.38;4993137;28;20109;-74
2023/05/30 01:03:33;;;;;;;8.60;6.03;;;;;;;25.92;51.43;99221.38;4993271;28;20054;-74
2023/05/30 01:06:03;;;;;;;8.15;5.65;;;;;;;25.93;51.58;99212.34;4992623;28;20122;-74
2023/05/30 01:08:28;;;;;;;7.60;5.55;;;;;;;25.93;51.39;99220.38;4993369;28;20034;-74
2023/05/30 01:11:16;;;;;;;10.50;5.60;;;;;;;25.90;51.54;99209.94;4993125;28;20373;-74
2023/05/30 01:13:54;;;;;;;7.45;4.93;;;;;;;25.92;51.23;99212.47;4932908;29;20032;-74
2023/05/30 01:16:26;;;;;;;7.78;5.43;;;;;;;25.88;51.25;99211.91;4932809;29;20119;-74
2023/05/30 01:19:17;;;;;;;9.15;5.38;;;;;;;25.86;51.36;99212.03;4932971;29;20039;-74
2023/05/30 01:21:44;;;;;;;7.47;5.55;;;;;;;25.84;51.45;99215.81;4932516;29;20031;-74
2023/05/30 01:24:26;;;;;;;8.30;5.47;;;;;;;25.82;51.84;99212.44;4932934;29;20039;-73
2023/05/30 01:27:18;;;;;;;7.35;5.32;;;;;;;25.82;51.58;99209.75;4932638;29;20032;-74
2023/05/30 01:29:44;;;;;;;7.57;5.20;;;;;;;25.80;51.61;99214.41;4931244;29;20031;-73
2023/05/30 01:32:09;;;;;;;7.28;5.00;;;;;;;25.78;51.50;99217.19;4913609;29;20119;-73
2023/05/30 01:34:35;;;;;;;7.40;5.35;;;;;;;25.78;51.88;99232.38;4913743;29;20749;-73
2023/05/30 01:37:01;;;;;;;8.18;5.20;;;;;;;25.79;51.70;99226.03;4913304;29;20047;-74
2023/05/30 01:39:26;;;;;;;7.32;5.38;;;;;;;25.79;52.11;99224.22;4913675;29;20034;-74
2023/05/30 01:42:11;;;;;;;7.57;4.85;;;;;;;25.81;51.91;99237.47;4926510;29;20067;-74
2023/05/30 01:44:45;;;;;;;7.53;5.10;;;;;;;25.78;51.78;99235.03;4932494;29;20044;-75
2023/05/30 01:47:40;;;;;;;6.72;5.00;;;;;;;25.74;51.66;99229.97;4932570;29;20032;-74
2023/05/30 01:50:32;;;;;;;7.22;4.70;;;;;;;25.76;51.96;99229.81;4931573;28;20039;-73
2023/05/30 01:52:59;;;;;;;6.07;4.57;;;;;;;25.76;51.54;99237.00;4973219;28;20030;-75
2023/05/30 01:55:28;;;;;;;8.15;5.22;;;;;;;25.73;51.74;99230.94;4973241;28;20053;-73
2023/05/30 01:57:56;;;;;;;7.25;4.78;;;;;;;25.72;51.61;99229.25;4973148;28;20031;-74
2023/05/30 02:00:24;;;;;;;7.20;4.90;;;;;;;25.67;51.93;99223.44;4972994;28;20062;-74
2023/05/30 02:02:50;;;;;;;6.00;4.60;;;;;;;25.67;51.81;99222.59;4973109;28;20085;-73
2023/05/30 02:05:15;;;;;;;6.60;4.65;;;;;;;25.69;51.88;99223.31;4971516;28;20027;-74
2023/05/30 02:07:41;;;;;;;6.57;4.38;;;;;;;25.66;51.50;99224.41;4992599;28;20447;-74
2023/05/30 02:10:06;;;;;;;7.90;4.75;;;;;;;25.64;51.51;99225.53;4992075;28;20477;-74
2023/05/30 02:12:32;;;;;;;9.18;4.88;;;;;;;25.60;51.70;99227.63;4976001;28;20034;-74
2023/05/30 02:14:57;;;;;;;6.38;4.18;;;;;;;25.60;51.76;99219.59;4976878;28;20607;-74
2023/05/30 02:17:23;;;;;;;7.45;4.57;;;;;;;25.60;51.91;99225.81;4976872;28;20498;-74
2023/05/30 02:19:49;;;;;;;6.95;4.28;;;;;;;25.59;51.86;99225.94;4976581;28;20030;-74
2023/05/30 02:22:17;;;;;;;7.78;4.63;;;;;;;25.59;51.65;99225.94;4976791;28;20365;-74
2023/05/30 02:24:42;;;;;;;7.05;4.40;;;;;;;25.58;51.49;99227.75;4976571;28;20459;-73
2023/05/30 02:27:08;;;;;;;6.60;4.60;;;;;;;25.58;51.95;99230.41;4976685;28;20054;-74
2023/05/30 02:29:34;;;;;;;7.22;4.22;;;;;;;25.57;51.83;99231.38;4976688;28;20472;-74
2023/05/30 02:31:59;;;;;;;7.70;4.20;;;;;;;25.54;51.74;99222.78;4976354;28;20038;-74
2023/05/30 02:34:25;;;;;;;7.53;4.18;;;;;;;25.55;51.56;99221.81;4976349;28;20062;-74
2023/05/30 02:36:50;;;;;;;7.50;4.45;;;;;;;25.55;51.65;99220.00;4976433;28;20034;-74
2023/05/30 02:39:15;;;;;;;6.53;3.97;;;;;;;25.55;51.99;99229.81;4976568;28;20555;-73
2023/05/30 02:41:41;;;;;;;5.47;3.90;;;;;;;25.55;51.65;99227.16;4986079;28;20030;-74
2023/05/30 02:44:07;;;;;;;6.05;4.10;;;;;;;25.55;51.75;99221.81;4995896;28;20113;-74
2023/05/30 02:46:33;;;;;;;7.05;4.07;;;;;;;25.53;51.84;99223.75;4995763;28;20026;-74
2023/05/30 02:48:59;;;;;;;8.15;4.95;;;;;;;25.53;51.83;99221.06;4995030;28;20026;-72
2023/05/30 02:51:25;;;;;;;9.15;4.30;;;;;;;25.50;51.71;99218.63;4991715;28;20023;-72
2023/05/30 02:53:50;;;;;;;5.82;4.15;;;;;;;25.50;51.51;99219.50;4995806;28;20066;-72
2023/05/30 02:56:16;;;;;;;6.05;3.85;;;;;;;25.46;51.53;99218.91;4995671;28;20105;-72
2023/05/30 02:58:41;;;;;;;7.85;3.92;;;;;;;25.43;51.66;99219.16;4995614;28;20041;-72
2023/05/30 03:01:07;;;;;;;8.65;4.32;;;;;;;25.44;51.57;99217.34;4994783;28;20113;-71
2023/05/30 03:03:34;;;;;;;6.25;4.22;;;;;;;25.42;51.81;99217.47;4995057;28;20037;-72
2023/05/30 03:06:01;;;;;;;6.03;4.13;;;;;;;25.43;51.66;99224.50;4995253;28;20110;-72
2023/05/30 03:08:28;;;;;;;6.63;3.85;;;;;;;25.41;51.38;99223.78;4995334;28;20101;-72
2023/05/30 03:10:54;;;;;;;6.03;4.25;;;;;;;25.37;51.86;99225.00;4995408;28;20488;-72
2023/05/30 03:13:20;;;;;;;6.07;4.25;;;;;;;25.38;51.85;99226.75;4995023;28;20025;-72
2023/05/30 03:15:45;;;;;;;6.57;4.03;;;;;;;25.39;51.69;99228.44;4995024;28;20026;-72
2023/05/30 03:18:11;;;;;;;6.13;3.97;;;;;;;25.38;51.83;99218.72;4994590;28;20022;-72
2023/05/30 03:20:36;;;;;;;5.60;4.43;;;;;;;25.37;51.92;99218.84;4995136;28;20061;-72
2023/05/30 03:23:02;;;;;;;7.13;4.93;;;;;;;25.32;51.76;99216.53;4994361;28;20499;-72
2023/05/30 03:25:28;;;;;;;7.82;4.10;;;;;;;25.37;51.62;99218.84;4994963;28;20037;-72
2023/05/30 03:27:53;;;;;;;6.20;4.05;;;;;;;25.34;51.85;99219.94;4994917;28;20105;-72
2023/05/30 03:30:22;;;;;;;5.88;3.92;;;;;;;25.29;51.58;99216.81;4994933;28;20019;-71
2023/05/30 03:32:48;;;;;;;5.68;3.75;;;;;;;25.32;51.59;99216.53;4994726;28;20452;-72
2023/05/30 03:35:15;;;;;;;5.20;3.55;;;;;;;25.26;51.94;99217.91;4993824;28;20408;-72
2023/05/30 03:37:41;;;;;;;5.90;3.42;;;;;;;25.27;51.98;99218.78;4994471;28;20014;-72
2023/05/30 03:40:08;;;;;;;7.63;4.00;;;;;;;25.26;51.92;99219.72;4994700;28;20018;-71
2023/05/30 03:42:34;;;;;;;5.47;3.90;;;;;;;25.23;52.02;99217.31;4994546;28;20174;-71
2023/05/30 03:45:00;;;;;;;7.88;3.97;;;;;;;25.23;51.60;99222.66;4994785;28;20530;-72
2023/05/30 03:47:26;;;;;;;6.57;3.88;;;;;;;25.19;51.76;99211.41;4994493;28;20029;-71
2023/05/30 03:49:52;;;;;;;5.47;3.65;;;;;;;25.20;51.66;99213.94;4994927;28;20031;-72
2023/05/30 03:52:17;;;;;;;7.03;3.90;;;;;;;25.16;51.83;99212.50;4994341;28;20096;-73
2023/05/30 03:54:43;;;;;;;5.85;3.70;;;;;;;25.15;51.86;99216.16;4994482;28;20033;-72
2023/05/30 03:57:09;;;;;;;4.82;3.50;;;;;;;25.15;52.04;99210.81;4994523;28;20030;-72
2023/05/30 03:59:34;;;;;;;6.22;3.30;;;;;;;25.15;51.88;99216.16;4994342;28;20152;-72
2023/05/30 04:02:00;;;;;;;6.13;4.07;;;;;;;25.11;51.99;99214.69;4994004;28;20041;-72
2023/05/30 04:04:26;;;;;;;6.95;3.95;;;;;;;25.12;51.73;99216.38;4994441;28;20041;-72
2023/05/30 04:06:51;;;;;;;5.63;4.07;;;;;;;25.14;52.06;99219.75;4994272;28;20468;-72
2023/05/30 04:09:17;;;;;;;5.38;3.72;;;;;;;25.13;52.10;99223.41;4994001;28;20116;-72
2023/05/30 04:11:43;;;;;;;5.95;3.80;;;;;;;25.14;51.88;99225.09;4994063;28;20026;-72
2023/05/30 04:14:08;;;;;;;7.05;4.00;;;;;;;25.14;51.83;99232.28;4994195;28;20058;-71
2023/05/30 04:16:34;;;;;;;7.32;3.72;;;;;;;25.13;51.95;99227.91;4994052;28;20480;-72
2023/05/30 04:18:59;;;;;;;6.47;3.70;;;;;;;25.13;52.02;99234.09;4994031;28;20026;-71
2023/05/30 04:21:26;;;;;;;6.30;4.00;;;;;;;25.13;51.86;99234.09;4986809;28;20455;-72
2023/05/30 04:23:51;;;;;;;6.05;3.50;;;;;;;25.13;51.75;99234.09;4974655;28;20109;-71
2023/05/30 04:26:17;;;;;;;6.75;3.78;;;;;;;25.13;52.05;99234.09;4974318;28;20481;-73
2023/05/30 04:28:43;;;;;;;5.82;4.10;;;;;;;25.11;51.96;99229.84;4974073;28;20022;-71
2023/05/30 04:31:10;;;;;;;5.38;3.72;;;;;;;25.09;51.88;99231.81;4974398;28;20031;-71
2023/05/30 04:33:35;;;;;;;5.45;3.53;;;;;;;25.09;51.94;99235.34;4979628;28;20479;-72
2023/05/30 04:36:05;;;;;;;5.63;3.40;;;;;;;25.08;52.02;99241.63;4993646;28;20025;-72
2023/05/30 04:38:32;;;;;;;5.72;3.83;;;;;;;25.11;51.90;99237.84;4993700;28;20046;-72
2023/05/30 04:41:00;;;;;;;5.72;3.38;;;;;;;25.09;52.00;99248.69;4993478;28;20026;-71
2023/05/30 04:43:27;;;;;;;6.25;3.65;;;;;;;25.07;52.09;99245.28;4993042;28;20042;-72
2023/05/30 04:45:52;;;;;;;6.18;4.00;;;;;;;25.07;52.03;99250.63;4982828;28;20061;-71
2023/05/30 04:48:17;;;;;;;6.75;3.70;;;;;;;25.05;52.17;99258.75;4992753;28;20057;-71
2023/05/30 04:50:47;;;;;;;6.15;3.88;;;;;;;25.06;52.42;99259.59;4993348;28;20510;-72
2023/05/30 04:53:15;;;;;;;6.22;3.97;;;;;;;25.07;52.48;99263.97;5008477;28;20089;-71
2023/05/30 04:55:44;;;;;;;5.47;3.90;;;;;;;25.06;52.41;99264.94;4992893;28;20415;-72
2023/05/30 04:58:13;;;;;;;7.78;3.83;;;;;;;25.06;52.68;99275.63;4992346;28;20030;-72
2023/05/30 05:00:40;;;;;;;6.07;3.88;;;;;;;25.09;52.44;99272.72;4991672;28;20033;-72
2023/05/30 05:03:06;;;;;;;6.65;4.15;;;;;;;25.07;52.47;99278.16;4992509;28;20092;-70
2023/05/30 05:05:32;;;;;;;6.13;3.78;;;;;;;25.07;52.67;99283.50;4992801;28;20133;-71
2023/05/30 05:07:58;;;;;;;6.07;3.95;;;;;;;25.07;53.24;99288.84;4992503;28;20022;-71
2023/05/30 05:10:24;;;;;;;6.05;3.97;;;;;;;25.07;52.98;99287.97;4992667;28;20018;-71
2023/05/30 05:12:49;;;;;;;6.70;3.92;;;;;;;25.05;53.25;99282.75;4992366;28;20023;-71
2023/05/30 05:15:14;;;;;;;5.70;3.47;;;;;;;25.04;53.59;99294.41;4989039;28;20034;-72
2023/05/30 05:17:40;;;;;;;6.45;3.72;;;;;;;25.04;53.87;99296.25;4992303;28;20029;-72
2023/05/30 05:20:06;;;;;;;6.20;3.90;;;;;;;25.07;53.97;99298.66;4991947;28;20022;-71
2023/05/30 05:22:33;;;;;;;5.47;3.40;;;;;;;25.08;54.08;99295.00;4991096;28;20029;-71
2023/05/30 05:24:58;;;;;;;6.05;3.80;;;;;;;25.09;54.56;99307.41;4987171;28;20034;-72
2023/05/30 05:27:26;;;;;;;6.70;3.65;;;;;;;25.11;54.12;99304.59;4991372;28;20022;-71
2023/05/30 05:29:51;;;;;;;7.90;4.10;;;;;;;25.09;53.98;99302.06;4991380;28;20018;-71
2023/05/30 05:32:17;;;;;;;7.90;3.95;;;;;;;25.13;53.63;99297.34;4990985;28;20021;-71
2023/05/30 05:34:42;;;;;;;11.02;4.45;;;;;;;25.17;53.30;99299.63;4989770;28;20022;-71
2023/05/30 05:37:08;;;;;;;11.23;4.53;;;;;;;25.23;52.77;99297.44;4991473;28;20034;-71
2023/05/30 05:39:34;;;;;;;12.15;4.63;;;;;;;25.31;52.19;99303.84;4992756;28;20022;-71
2023/05/30 05:42:01;;;;;;;9.73;4.28;;;;;;;25.36;52.17;99297.28;4991717;28;20043;-71
2023/05/30 05:44:27;;;;;;;11.30;4.80;;;;;;;25.40;51.78;99307.56;4991458;28;20030;-70
2023/05/30 05:46:52;;;;;;;11.18;5.00;;;;;;;25.42;51.84;99302.94;4991862;28;20025;-70
2023/05/30 05:49:18;;;;;;;11.60;4.70;;;;;;;25.45;52.37;99307.19;4990142;28;20081;-70
2023/05/30 05:51:43;;;;;;;11.02;4.68;;;;;;;25.46;51.36;99304.41;4992023;28;20046;-71
2023/05/30 05:54:09;;;;;;;11.40;4.53;;;;;;;25.46;51.47;99307.06;4991368;28;20444;-70
2023/05/30 05:56:34;;;;;;;11.80;5.22;;;;;;;25.45;51.24;99302.69;4991413;28;20037;-70
2023/05/30 05:58:59;;;;;;;9.77;5.00;;;;;;;25.46;51.86;99307.06;4991187;28;20115;-70
2023/05/30 06:01:25;;;;;;;10.95;4.93;;;;;;;25.38;53.67;99309.53;4991984;28;20069;-71
2023/05/30 06:03:51;;;;;;;9.23;5.10;;;;;;;25.33;53.53;99309.06;4992683;28;20030;-71
2023/05/30 06:06:16;;;;;;;14.27;5.18;;;;;;;25.33;53.37;99301.03;4992232;28;20030;-72
2023/05/30 06:08:45;;;;;;;9.95;4.97;;;;;;;25.33;52.26;99309.06;4992552;28;20081;-71
2023/05/30 06:11:10;;;;;;;9.68;5.05;;;;;;;25.27;53.00;99304.22;4991955;28;20041;-71
2023/05/30 06:13:36;;;;;;;7.35;4.57;;;;;;;25.25;53.36;99306.16;4992618;28;20031;-70
2023/05/30 06:16:01;;;;;;;8.35;4.57;;;;;;;25.25;52.88;99311.50;4991144;28;20026;-71
2023/05/30 06:18:27;;;;;;;10.50;4.03;;;;;;;25.27;52.88;99309.56;4992219;28;20126;-71
2023/05/30 06:20:52;;;;;;;8.15;4.40;;;;;;;25.30;52.67;99317.31;4992377;28;20109;-71
2023/05/30 06:23:19;;;;;;;11.35;5.07;;;;;;;25.31;52.50;99316.31;4992378;28;20391;-71
2023/05/30 06:25:45;;;;;;;10.68;5.10;;;;;;;25.32;52.45;99315.34;4991551;28;20038;-70
2023/05/30 06:28:10;;;;;;;9.75;4.90;;;;;;;25.33;52.31;99309.06;4979286;28;20035;-71
2023/05/30 06:30:36;;;;;;;7.55;4.47;;;;;;;25.41;52.10;99317.28;4971527;28;20084;-70
2023/05/30 06:33:01;;;;;;;7.03;3.90;;;;;;;25.41;52.20;99317.28;4973013;28;20066;-71
2023/05/30 06:35:26;;;;;;;8.23;4.72;;;;;;;25.37;52.12;99321.16;4972815;28;20090;-71
2023/05/30 06:37:52;;;;;;;9.20;4.97;;;;;;;25.39;52.55;99326.38;4979730;28;20094;-71
2023/05/30 06:40:17;;;;;;;9.65;4.50;;;;;;;25.37;52.35;99315.00;4990270;28;20034;-71
2023/05/30 06:42:42;;;;;;;7.70;4.45;;;;;;;25.38;52.39;99322.88;4991619;28;20046;-70
2023/05/30 06:45:08;;;;;;;8.82;4.50;;;;;;;25.37;52.24;99320.34;4991968;28;20189;-70
2023/05/30 06:47:34;;;;;;;7.13;4.43;;;;;;;25.37;52.10;99321.16;4991883;28;20034;-71
2023/05/30 06:49:59;;;;;;;8.27;4.25;;;;;;;25.37;52.24;99326.50;4991892;28;20027;-71
2023/05/30 06:52:25;;;;;;;8.85;4.68;;;;;;;25.40;52.21;99323.59;4992092;28;20038;-71
2023/05/30 06:54:50;;;;;;;10.75;5.00;;;;;;;25.42;52.11;99323.47;4991724;28;20057;-70
2023/05/30 06:57:16;;;;;;;8.63;4.50;;;;;;;25.43;52.12;99323.31;4988692;28;20481;-73
2023/05/30 06:59:41;;;;;;;10.43;4.97;;;;;;;25.49;51.89;99324.66;4975853;28;20039;-72
2023/05/30 07:02:07;;;;;;;10.07;4.82;;;;;;;25.51;52.20;99316.53;4975925;28;20031;-73
2023/05/30 07:04:32;;;;;;;8.63;4.43;;;;;;;25.52;52.21;99320.88;4975855;28;20243;-73
2023/05/30 07:06:59;;;;;;;10.10;4.78;;;;;;;25.53;52.30;99314.56;4975900;28;20696;-73
2023/05/30 07:09:26;;;;;;;7.03;4.30;;;;;;;25.52;51.86;99320.88;4975322;28;20054;-72
2023/05/30 07:11:51;;;;;;;8.25;5.25;;;;;;;25.54;52.12;99316.28;4975921;28;20073;-73
2023/05/30 07:14:17;;;;;;;7.55;4.60;;;;;;;25.54;52.18;99313.63;4979309;28;20050;-72
2023/05/30 07:16:42;;;;;;;8.18;4.70;;;;;;;25.55;52.14;99312.63;4995096;28;20041;-72
2023/05/30 07:19:08;;;;;;;10.80;4.63;;;;;;;25.55;51.89;99318.84;4995029;28;20030;-73
2023/05/30 07:21:33;;;;;;;8.65;4.88;;;;;;;25.58;52.22;99317.75;4994996;28;20484;-72
2023/05/30 07:23:58;;;;;;;8.60;5.13;;;;;;;25.57;51.92;99310.72;4990914;28;20027;-73
2023/05/30 07:26:24;;;;;;;9.77;5.07;;;;;;;25.60;52.00;99316.63;4975446;28;20027;-73
2023/05/30 07:28:49;;;;;;;7.85;4.55;;;;;;;25.60;51.69;99313.09;4983198;28;20508;-73
2023/05/30 07:31:15;;;;;;;10.00;4.80;;;;;;;25.62;52.03;99311.19;4994753;28;20377;-72
2023/05/30 07:33:40;;;;;;;8.27;4.80;;;;;;;25.63;51.55;99315.53;4994872;28;20162;-73
2023/05/30 07:36:07;;;;;;;7.50;4.70;;;;;;;25.63;51.96;99315.53;4994791;28;20084;-73
2023/05/30 07:38:33;;;;;;;7.93;4.80;;;;;;;25.64;51.95;99314.56;4994448;28;20022;-72
2023/05/30 07:40:58;;;;;;;7.38;4.68;;;;;;;25.66;51.61;99304.56;4994649;28;20026;-73
2023/05/30 07:43:23;;;;;;;8.75;4.55;;;;;;;25.68;51.68;99302.66;4994468;28;20050;-73
2023/05/30 07:45:49;;;;;;;7.50;4.55;;;;;;;25.70;51.83;99305.16;4994440;28;20462;-73
2023/05/30 07:48:14;;;;;;;9.13;4.53;;;;;;;25.70;51.67;99316.72;4994502;28;20043;-72
2023/05/30 07:50:40;;;;;;;7.63;4.57;;;;;;;25.71;51.49;99318.41;4994548;28;20030;-72
2023/05/30 07:53:05;;;;;;;7.10;4.00;;;;;;;25.70;51.53;99311.38;4994133;28;20026;-73
2023/05/30 07:55:30;;;;;;;10.57;4.43;;;;;;;25.70;51.53;99314.03;4994458;28;20121;-73
2023/05/30 07:57:56;;;;;;;9.23;4.85;;;;;;;25.69;51.71;99309.69;4994509;28;20054;-72
2023/05/30 08:00:22;;;;;;;9.52;4.78;;;;;;;25.70;51.39;99314.03;4993903;28;20459;-72
2023/05/30 08:02:47;;;;;;;7.30;4.60;;;;;;;25.73;51.63;99313.78;4975832;28;20432;-73
2023/05/30 08:05:12;;;;;;;7.75;4.80;;;;;;;25.72;51.68;99317.41;4974801;28;20038;-73
2023/05/30 08:07:38;;;;;;;6.45;4.25;;;;;;;25.74;51.32;99318.16;4974203;28;20027;-73
2023/05/30 08:10:03;;;;;;;8.93;4.78;;;;;;;25.74;51.51;99317.31;4974748;28;20053;-73
2023/05/30 08:12:29;;;;;;;8.07;4.50;;;;;;;25.74;51.08;99312.81;4974831;28;20027;-73
2023/05/30 08:14:58;;;;;;;10.23;4.68;;;;;;;25.76;51.29;99319.84;4974697;28;20516;-73
2023/05/30 08:17:24;;;;;;;7.70;4.65;;;;;;;25.75;51.48;99316.31;4973159;28;20034;-73
2023/05/30 08:19:53;;;;;;;8.02;4.82;;;;;;;25.77;51.31;99313.53;4974536;28;20031;-72
2023/05/30 08:22:21;;;;;;;8.57;4.50;;;;;;;25.79;51.32;99320.44;4973898;28;20509;-72
2023/05/30 08:24:50;;;;;;;6.10;3.85;;;;;;;25.79;51.59;99314.22;4990273;28;20150;-72
2023/05/30 08:27:16;;;;;;;7.82;4.40;;;;;;;25.81;51.07;99321.16;4993848;28;20039;-73
2023/05/30 08:29:42;;;;;;;6.13;4.40;;;;;;;25.82;51.27;99308.66;4993489;28;20488;-73
2023/05/30 08:32:07;;;;;;;6.95;3.78;;;;;;;25.84;51.20;99317.38;4993762;28;20034;-73
2023/05/30 08:34:34;;;;;;;7.18;4.32;;;;;;;25.84;51.27;99318.22;4993729;28;20062;-73
2023/05/30 08:37:00;;;;;;;9.00;4.72;;;;;;;25.87;51.10;99322.47;4993343;28;20085;-73
2023/05/30 08:39:26;;;;;;;7.88;4.60;;;;;;;25.87;51.10;99315.28;4993506;28;20056;-71
2023/05/30 08:41:52;;;;;;;7.32;4.40;;;;;;;25.87;51.20;99307.28;4993451;28;20033;-73
2023/05/30 08:44:17;;;;;;;10.98;4.60;;;;;;;25.88;51.39;99313.47;4993633;28;20037;-73
2023/05/30 08:46:43;;;;;;;8.50;4.18;;;;;;;25.90;51.09;99319.53;4993176;28;20093;-74
2023/05/30 08:49:13;;;;;;;6.95;4.47;;;;;;;25.91;51.19;99317.72;4993315;28;20033;-72
2023/05/30 08:51:43;;;;;;;6.97;4.10;;;;;;;25.89;51.24;99323.19;4992981;28;20424;-72
2023/05/30 08:54:22;;;;;;;8.35;4.55;;;;;;;25.90;51.17;99316.03;4992856;28;20088;-72
2023/05/30 08:57:01;;;;;;;8.60;5.35;;;;;;;25.91;51.51;99317.72;4993297;28;20053;-72
2023/05/30 08:59:27;;;;;;;7.30;4.28;;;;;;;25.90;51.55;99311.50;4993113;28;20026;-72
2023/05/30 09:01:55;;;;;;;6.88;4.30;;;;;;;25.92;51.34;99308.72;4976503;28;20039;-73
2023/05/30 09:04:22;;;;;;;7.22;4.50;;;;;;;25.93;51.27;99316.59;4973578;28;20030;-72
2023/05/30 09:06:48;;;;;;;8.35;5.25;;;;;;;25.93;51.50;99321.97;4973585;28;20125;-72
2023/05/30 09:09:14;;;;;;;7.25;4.88;;;;;;;25.95;51.52;99320.00;4974376;28;20037;-73
2023/05/30 09:11:42;;;;;;;8.23;5.22;;;;;;;25.96;51.22;99321.69;4993130;28;20038;-73
2023/05/30 09:14:08;;;;;;;8.15;5.10;;;;;;;25.96;50.93;99332.38;4993024;28;20132;-72
2023/05/30 09:16:34;;;;;;;8.90;5.40;;;;;;;25.98;51.23;99322.41;4993078;28;20404;-73
2023/05/30 09:19:00;;;;;;;8.18;4.40;;;;;;;25.99;51.60;99326.78;4992548;28;20027;-73
2023/05/30 09:21:26;;;;;;;8.05;4.45;;;;;;;26.00;51.05;99332.97;4973995;28;20495;-72
2023/05/30 09:23:52;;;;;;;8.20;5.13;;;;;;;26.01;51.16;99335.50;4973379;28;20085;-73
2023/05/30 09:26:18;;;;;;;8.18;4.63;;;;;;;26.03;51.16;99331.84;4973164;28;20056;-73
2023/05/30 09:28:46;;;;;;;9.55;4.85;;;;;;;26.04;51.28;99333.56;4988757;28;20054;-73
2023/05/30 09:31:12;;;;;;;8.57;4.72;;;;;;;26.05;51.38;99329.91;4976528;28;20511;-73
2023/05/30 09:33:51;;;;;;;7.97;4.68;;;;;;;26.05;51.07;99329.91;4972956;28;20038;-72
2023/05/30 09:36:21;;;;;;;8.40;4.97;;;;;;;26.04;51.02;99328.22;4973305;28;20031;-73
2023/05/30 09:39:05;;;;;;;7.20;4.53;;;;;;;26.05;51.24;99329.91;4973575;28;20026;-73
2023/05/30 09:41:31;;;;;;;7.63;4.90;;;;;;;26.06;51.19;99336.97;4972790;28;20070;-72
2023/05/30 09:43:57;;;;;;;6.18;4.32;;;;;;;26.10;51.10;99333.06;4973146;28;20428;-73
2023/05/30 09:46:27;;;;;;;8.23;4.70;;;;;;;26.11;50.92;99335.56;4985233;28;20474;-70
2023/05/30 09:48:53;;;;;;;7.00;4.40;;;;;;;26.11;50.58;99334.75;4992169;28;20037;-72
2023/05/30 09:51:21;;;;;;;7.38;4.82;;;;;;;26.13;51.24;99327.44;4992434;28;20427;-72
2023/05/30 09:54:00;;;;;;;8.52;5.18;;;;;;;26.14;51.14;99324.63;4992466;28;20026;-72
2023/05/30 09:56:40;;;;;;;10.10;4.88;;;;;;;26.13;50.99;99324.75;4992866;28;20029;-72
2023/05/30 09:59:07;;;;;;;7.38;4.80;;;;;;;26.15;50.82;99317.47;4992483;28;20022;-72
2023/05/30 10:01:37;;;;;;;8.30;4.63;;;;;;;26.17;50.79;99322.66;4973961;28;20023;-72
2023/05/30 10:04:19;;;;;;;9.02;4.85;;;;;;;26.18;50.88;99322.53;4972412;28;20397;-73
2023/05/30 10:06:47;;;;;;;9.40;4.97;;;;;;;26.20;51.13;99320.56;4982075;28;20472;-73
2023/05/30 10:09:12;;;;;;;7.68;4.78;;;;;;;26.20;50.60;99317.91;4992593;28;20037;-71
2023/05/30 10:11:40;;;;;;;9.30;4.90;;;;;;;26.21;50.71;99316.94;4992145;28;20022;-71
2023/05/30 10:14:07;;;;;;;7.13;5.10;;;;;;;26.22;50.89;99315.97;4992323;28;20022;-71
2023/05/30 10:16:35;;;;;;;6.97;4.75;;;;;;;26.23;50.66;99306.97;4992496;28;20049;-72
2023/05/30 10:19:06;;;;;;;7.10;4.30;;;;;;;26.25;50.81;99301.50;4991729;28;20027;-73
2023/05/30 10:21:34;;;;;;;9.82;4.60;;;;;;;26.26;50.93;99306.69;4992300;28;20026;-72
2023/05/30 10:24:02;;;;;;;7.82;4.43;;;;;;;26.27;50.83;99297.72;4992270;28;20034;-72
2023/05/30 10:26:34;;;;;;;9.02;4.30;;;;;;;26.28;50.44;99314.59;4992149;28;20035;-72
2023/05/30 10:29:05;;;;;;;6.97;4.38;;;;;;;26.32;50.64;99309.81;4992125;28;20116;-72
2023/05/30 10:31:32;;;;;;;7.25;4.45;;;;;;;26.33;50.54;99311.56;4991677;28;20026;-72
2023/05/30 10:34:02;;;;;;;7.28;4.50;;;;;;;26.34;50.24;99307.88;4995272;28;20026;-73
2023/05/30 10:36:28;;;;;;;6.72;4.55;;;;;;;26.35;50.24;99306.91;4996004;28;20027;-72
2023/05/30 10:39:06;;;;;;;7.13;4.13;;;;;;;26.36;50.40;99306.78;4995166;28;20519;-72
2023/05/30 10:41:49;;;;;;;7.53;4.47;;;;;;;26.37;50.43;99303.13;4995534;28;20492;-72
2023/05/30 10:44:40;;;;;;;8.07;4.50;;;;;;;26.38;50.43;99303.94;4995901;28;20121;-72
2023/05/30 10:47:24;;;;;;;6.45;4.07;;;;;;;26.40;50.01;99302.00;4995124;28;20026;-72
2023/05/30 10:49:52;;;;;;;8.32;4.88;;;;;;;26.42;49.90;99304.56;4995360;28;20030;-72
2023/05/30 10:52:30;;;;;;;9.05;4.78;;;;;;;26.41;49.84;99303.69;4995555;28;20033;-71
2023/05/30 10:54:56;;;;;;;5.88;4.03;;;;;;;26.42;49.90;99294.69;4995354;28;20050;-73
2023/05/30 10:57:28;;;;;;;6.43;4.20;;;;;;;26.44;49.95;99295.38;4994375;28;20065;-72
2023/05/30 11:00:00;;;;;;;5.72;4.05;;;;;;;26.46;50.32;99290.78;4995152;28;20120;-72
2023/05/30 11:02:35;;;;;;;8.15;4.28;;;;;;;26.48;50.11;99282.63;4988751;28;20023;-71
2023/05/30 11:05:06;;;;;;;6.35;4.05;;;;;;;26.51;50.48;99283.19;4992127;28;20117;-72
2023/05/30 11:07:34;;;;;;;6.32;4.18;;;;;;;26.53;50.40;99285.72;4994646;28;20061;-72
2023/05/30 11:10:02;;;;;;;7.15;4.45;;;;;;;26.54;50.52;99292.78;4993071;28;20034;-71
2023/05/30 11:12:29;;;;;;;6.75;4.10;;;;;;;26.57;50.14;99289.00;4994813;28;20081;-72
2023/05/30 11:14:56;;;;;;;6.43;4.22;;;;;;;26.60;50.16;99280.69;4994637;28;20026;-72
2023/05/30 11:17:32;;;;;;;6.57;4.00;;;;;;;26.62;50.08;99289.41;4995133;28;20029;-72
2023/05/30 11:20:16;;;;;;;;;;;;;;;26.64;50.38;99282.09;4995517;28;20057;-72
2023/05/30 11:23:01;;;;;;;9.00;4.78;;;;;;;26.66;50.27;99277.47;4994713;28;19918;-72
2023/05/30 11:25:29;;;;;;;7.18;4.88;;;;;;;26.67;49.90;99271.13;4994733;28;20026;-72
2023/05/30 11:28:13;;;;;;;7.25;4.38;;;;;;;26.68;50.11;99270.13;4994978;28;20050;-73
2023/05/30 11:30:47;;;;;;;7.03;4.82;;;;;;;26.69;49.64;99263.81;4993654;28;20045;-72
2023/05/30 11:33:17;;;;;;;6.75;4.40;;;;;;;26.72;49.94;99260.84;4994386;28;20034;-72